createdAt,value
2022-11-16T00:01:54.315Z,32.42
2022-11-16T00:04:39.686Z,30.45
2022-11-16T00:07:27.808Z,32.13
2022-11-16T00:10:13.429Z,30.52
2022-11-16T00:12:58.970Z,30.60
2022-11-16T00:16:04.498Z,29.25
2022-11-16T00:18:59.606Z,38.15
2022-11-16T00:21:44.920Z,33.13
2022-11-16T00:24:30.451Z,31.23
2022-11-16T00:27:15.946Z,30.38
2022-11-16T00:30:02.090Z,31.33
2022-11-16T00:32:47.691Z,31.58
2022-11-16T00:35:37.469Z,32.72
2022-11-16T00:38:23.290Z,28.20
2022-11-16T00:41:09.538Z,32.17
2022-11-16T00:43:55.085Z,32.90
2022-11-16T00:46:41.294Z,32.58
2022-11-16T00:49:26.879Z,30.55
2022-11-16T00:52:12.596Z,31.98
2022-11-16T00:54:57.797Z,38.13
2022-11-16T00:57:43.659Z,31.42
2022-11-16T01:00:29.415Z,31.52
2022-11-16T01:03:15.607Z,29.60
2022-11-16T01:06:05.559Z,34.25
2022-11-16T01:08:51.285Z,29.67
2022-11-16T01:11:55.849Z,35.05
2022-11-16T01:14:46.602Z,37.70
2022-11-16T01:17:32.106Z,35.05
2022-11-16T01:20:20.547Z,36.45
2022-11-16T01:23:06.097Z,33.70
2022-11-16T01:26:06.399Z,39.67
2022-11-16T01:28:54.169Z,34.38
2022-11-16T01:31:39.993Z,38.60
2022-11-16T01:34:25.135Z,38.90
2022-11-16T01:37:16.235Z,37.15
2022-11-16T01:40:01.624Z,42.05
2022-11-16T01:42:48.119Z,40.20
2022-11-16T01:45:39.151Z,34.85
2022-11-16T01:48:30.102Z,35.20
2022-11-16T01:51:16.490Z,27.63
2022-11-16T01:54:06.207Z,27.92
2022-11-16T01:56:55.566Z,28.00
2022-11-16T02:00:09.490Z,26.95
2022-11-16T02:03:21.670Z,27.77
2022-11-16T02:06:26.362Z,29.73
2022-11-16T02:09:57.039Z,27.83
2022-11-16T02:12:53.681Z,24.70
2022-11-16T02:16:17.246Z,29.15
2022-11-16T02:19:17.169Z,28.00
2022-11-16T02:22:47.526Z,27.10
2022-11-16T02:25:39.848Z,27.70
2022-11-16T02:28:31.042Z,26.85
2022-11-16T02:31:32.847Z,28.58
2022-11-16T02:34:20.987Z,28.98
2022-11-16T02:37:12.627Z,33.38
2022-11-16T02:40:01.310Z,28.38
2022-11-16T02:42:58.094Z,29.60
2022-11-16T02:45:51.228Z,28.80
2022-11-16T02:48:45.582Z,32.10
2022-11-16T02:51:33.617Z,34.25
2022-11-16T02:54:20.666Z,37.30
2022-11-16T02:57:28.028Z,38.50
2022-11-16T03:00:21.633Z,33.30
2022-11-16T03:03:25.598Z,34.83
2022-11-16T03:06:23.080Z,40.15
2022-11-16T03:09:22.417Z,35.13
2022-11-16T03:12:12.138Z,34.25
2022-11-16T03:15:07.219Z,34.28
2022-11-16T03:17:53.921Z,30.20
2022-11-16T03:20:43.712Z,29.15
2022-11-16T03:23:29.702Z,26.58
2022-11-16T03:26:20.150Z,32.50
2022-11-16T03:29:17.351Z,25.30
2022-11-16T03:32:19.049Z,24.73
2022-11-16T03:35:10.745Z,23.60
2022-11-16T03:37:59.214Z,23.45
2022-11-16T03:40:51.954Z,21.30
2022-11-16T03:43:38.997Z,19.95
2022-11-16T03:46:25.642Z,20.05
2022-11-16T03:49:11.203Z,17.30
2022-11-16T03:51:58.205Z,18.23
2022-11-16T03:54:44.038Z,19.70
2022-11-16T03:57:30.397Z,18.70
2022-11-16T04:00:18.558Z,19.13
2022-11-16T04:03:04.149Z,20.63
2022-11-16T04:06:08.036Z,21.85
2022-11-16T04:09:12.903Z,23.10
2022-11-16T04:12:16.651Z,21.88
2022-11-16T04:15:20.751Z,17.92
2022-11-16T04:18:26.139Z,23.27
2022-11-16T04:21:52.725Z,17.83
2022-11-16T04:24:41.945Z,23.10
2022-11-16T04:27:50.369Z,16.85
2022-11-16T04:30:55.910Z,20.15
2022-11-16T04:34:00.456Z,18.33
2022-11-16T04:37:04.847Z,18.33
2022-11-16T04:39:50.434Z,21.88
2022-11-16T04:42:36.014Z,20.20
2022-11-16T04:45:42.408Z,24.92
2022-11-16T04:51:14.615Z,21.88
2022-11-16T04:54:00.403Z,25.83
2022-11-16T04:56:46.115Z,30.40
2022-11-16T04:59:56.756Z,23.27
2022-11-16T05:02:45.951Z,23.20
2022-11-16T05:05:31.343Z,24.75
2022-11-16T05:08:21.210Z,23.35
2022-11-16T05:11:09.311Z,33.00
2022-11-16T05:13:54.482Z,26.35
2022-11-16T05:16:39.993Z,24.58
2022-11-16T05:19:44.095Z,22.67
2022-11-16T05:22:30.003Z,22.10
2022-11-16T05:25:16.145Z,27.25
2022-11-16T05:28:01.548Z,21.38
2022-11-16T05:30:48.995Z,20.92
2022-11-16T05:33:41.158Z,27.05
2022-11-16T05:36:28.663Z,21.23
2022-11-16T05:39:14.246Z,22.40
2022-11-16T05:42:00.559Z,21.35
2022-11-16T05:44:46.154Z,21.23
2022-11-16T05:47:35.717Z,14.65
2022-11-16T05:50:21.659Z,15.48
2022-11-16T05:53:19.775Z,29.40
2022-11-16T05:56:06.906Z,20.75
2022-11-16T05:58:58.578Z,15.35
2022-11-16T06:01:44.348Z,15.77
2022-11-16T06:04:33.814Z,17.35
2022-11-16T06:07:19.221Z,20.13
2022-11-16T06:10:05.299Z,21.88
2022-11-16T06:12:51.881Z,14.85
2022-11-16T06:15:38.326Z,14.95
2022-11-16T06:18:26.828Z,15.68
2022-11-16T06:21:13.461Z,14.75
2022-11-16T06:23:59.407Z,16.55
2022-11-16T06:26:47.095Z,17.30
2022-11-16T06:29:32.558Z,18.33
2022-11-16T06:32:18.044Z,17.75
2022-11-16T06:35:04.683Z,14.45
2022-11-16T06:37:50.642Z,19.13
2022-11-16T06:40:39.758Z,23.92
2022-11-16T06:43:26.136Z,18.73
2022-11-16T06:46:12.105Z,20.35
2022-11-16T06:48:58.751Z,14.55
2022-11-16T06:51:46.462Z,21.98
2022-11-16T06:54:31.938Z,14.77
2022-11-16T06:57:18.666Z,21.92
2022-11-16T07:00:05.311Z,14.80
2022-11-16T07:02:52.778Z,14.90
2022-11-16T07:05:42.114Z,14.18
2022-11-16T07:08:31.767Z,13.05
2022-11-16T07:11:17.499Z,15.25
2022-11-16T07:14:03.518Z,19.15
2022-11-16T07:16:49.220Z,15.98
2022-11-16T07:19:36.850Z,16.65
2022-11-16T07:22:23.274Z,16.65
2022-11-16T07:25:09.880Z,17.67
2022-11-16T07:27:57.259Z,15.57
2022-11-16T07:30:44.602Z,11.50
2022-11-16T07:33:34.554Z,14.73
2022-11-16T07:36:46.041Z,17.73
2022-11-16T07:39:31.140Z,20.80
2022-11-16T07:42:20.087Z,22.42
2022-11-16T07:45:18.758Z,19.67
2022-11-16T07:48:14.218Z,17.65
2022-11-16T07:51:19.797Z,16.80
2022-11-16T07:54:22.835Z,22.90
2022-11-16T07:57:08.426Z,22.23
2022-11-16T07:59:53.976Z,24.33
2022-11-16T08:02:39.494Z,23.67
2022-11-16T08:05:26.962Z,20.60
2022-11-16T08:08:13.213Z,16.30
2022-11-16T08:11:05.511Z,24.02
2022-11-16T08:13:51.355Z,17.33
2022-11-16T08:16:37.862Z,20.33
2022-11-16T08:19:31.755Z,24.75
2022-11-16T08:22:17.301Z,13.77
2022-11-16T08:25:04.984Z,18.40
2022-11-16T08:27:50.582Z,22.08
2022-11-16T08:30:42.050Z,17.92
2022-11-16T08:33:30.275Z,16.23
2022-11-16T08:36:17.994Z,25.90
2022-11-16T08:39:04.439Z,18.83
2022-11-16T08:41:51.729Z,15.20
2022-11-16T08:44:36.898Z,18.25
2022-11-16T08:50:26.967Z,23.63
2022-11-16T08:53:15.171Z,23.58
2022-11-16T08:56:09.746Z,22.50
2022-11-16T08:58:58.933Z,21.55
2022-11-16T09:01:45.174Z,21.65
2022-11-16T09:04:35.762Z,19.60
2022-11-16T09:07:22.338Z,23.63
2022-11-16T09:10:08.240Z,21.95
2022-11-16T09:12:59.990Z,12.95
2022-11-16T09:15:45.470Z,22.65
2022-11-16T09:18:32.008Z,17.23
2022-11-16T09:21:29.249Z,17.25
2022-11-16T09:24:15.109Z,15.80
2022-11-16T09:27:01.499Z,14.75
2022-11-16T09:29:46.675Z,16.35
2022-11-16T09:32:32.172Z,17.67
2022-11-16T09:35:17.542Z,17.20
2022-11-16T09:38:03.791Z,13.85
2022-11-16T09:40:49.093Z,24.38
2022-11-16T09:43:55.389Z,21.95
2022-11-16T09:46:44.798Z,16.08
2022-11-16T09:49:44.034Z,19.27
2022-11-16T09:52:39.066Z,11.90
2022-11-16T09:56:00.559Z,18.50
2022-11-16T09:58:51.254Z,20.13
2022-11-16T10:02:06.934Z,19.55
2022-11-16T10:04:58.713Z,12.73
2022-11-16T10:07:48.525Z,18.50
2022-11-16T10:10:38.464Z,22.73
2022-11-16T10:14:03.838Z,13.13
2022-11-16T10:17:12.978Z,21.98
2022-11-16T10:20:15.285Z,15.05
2022-11-16T10:23:35.773Z,24.10
2022-11-16T10:26:50.567Z,18.98
2022-11-16T10:29:55.551Z,14.80
2022-11-16T10:32:50.691Z,17.25
2022-11-16T10:35:40.585Z,20.77
2022-11-16T10:38:33.118Z,15.85
2022-11-16T10:41:31.113Z,13.43
2022-11-16T10:44:39.769Z,14.45
2022-11-16T10:47:36.718Z,15.07
2022-11-16T10:50:40.833Z,18.10
2022-11-16T10:53:46.786Z,12.80
2022-11-16T10:56:40.358Z,14.65
2022-11-16T10:59:42.597Z,12.10
2022-11-16T11:02:36.826Z,8.85
2022-11-16T11:05:22.826Z,14.35
2022-11-16T11:08:12.008Z,11.02
2022-11-16T11:11:23.189Z,10.85
2022-11-16T11:14:14.712Z,14.75
2022-11-16T11:17:12.205Z,11.57
2022-11-16T11:20:21.737Z,12.40
2022-11-16T11:23:22.550Z,12.35
2022-11-16T11:26:11.437Z,11.25
2022-11-16T11:28:57.030Z,15.60
2022-11-16T11:31:49.595Z,11.95
2022-11-16T11:34:48.198Z,12.88
2022-11-16T11:37:36.334Z,9.95
2022-11-16T11:40:26.318Z,14.27
2022-11-16T11:43:23.674Z,9.65
2022-11-16T11:46:21.258Z,12.43
2022-11-16T11:49:37.232Z,12.80
2022-11-16T11:52:42.038Z,14.60
2022-11-16T11:55:27.825Z,11.70
2022-11-16T11:58:18.752Z,11.95
2022-11-16T12:01:35.007Z,10.07
2022-11-16T12:07:40.162Z,10.95
2022-11-16T12:10:51.132Z,8.00
2022-11-16T12:14:00.973Z,9.63
2022-11-16T12:16:51.386Z,8.52
2022-11-16T12:20:15.701Z,10.43
2022-11-16T12:23:27.220Z,9.85
2022-11-16T12:26:50.195Z,8.45
2022-11-16T12:30:06.024Z,9.40
2022-11-16T12:36:08.129Z,9.00
2022-11-16T12:39:16.879Z,7.90
2022-11-16T12:42:41.023Z,10.32
2022-11-16T12:45:39.469Z,13.35
2022-11-16T12:48:36.559Z,8.15
2022-11-16T12:51:49.710Z,9.07
2022-11-16T12:55:03.950Z,8.85
2022-11-16T12:58:07.731Z,13.07
2022-11-16T13:01:19.117Z,6.53
2022-11-16T13:04:31.537Z,10.90
2022-11-16T13:07:39.887Z,11.02
2022-11-16T13:10:30.240Z,9.27
2022-11-16T13:13:39.355Z,12.73
2022-11-16T13:16:25.135Z,13.27
2022-11-16T13:19:13.454Z,8.88
2022-11-16T13:22:21.586Z,9.75
2022-11-16T13:25:14.779Z,9.75
2022-11-16T13:28:33.535Z,8.85
2022-11-16T13:31:35.255Z,9.40
2022-11-16T13:34:37.817Z,7.75
2022-11-16T13:37:38.449Z,8.48
2022-11-16T13:43:37.111Z,9.55
2022-11-16T13:46:54.165Z,9.52
2022-11-16T13:49:43.278Z,13.02
2022-11-16T13:53:28.353Z,12.43
2022-11-16T13:56:02.110Z,7.43
2022-11-16T13:58:50.861Z,9.55
2022-11-16T14:01:57.003Z,6.80
2022-11-16T14:04:59.515Z,12.68
2022-11-16T14:07:49.494Z,14.52
2022-11-16T14:10:35.052Z,10.38
2022-11-16T14:13:51.518Z,9.73
2022-11-16T14:16:45.774Z,10.57
2022-11-16T14:19:44.322Z,11.63
2022-11-16T14:22:52.917Z,14.00
2022-11-16T14:25:41.650Z,12.05
2022-11-16T14:28:54.128Z,13.10
2022-11-16T14:32:17.023Z,14.00
2022-11-16T14:35:06.202Z,13.77
2022-11-16T14:38:02.850Z,9.50
2022-11-16T14:40:56.241Z,7.78
2022-11-16T14:43:50.051Z,13.13
2022-11-16T14:46:38.216Z,10.77
2022-11-16T14:49:25.970Z,8.07
2022-11-16T14:52:17.165Z,11.18
2022-11-16T14:55:08.289Z,14.77
2022-11-16T14:58:20.339Z,13.88
2022-11-16T15:01:12.138Z,11.80
2022-11-16T15:04:07.033Z,10.63
2022-11-16T15:07:03.061Z,17.30
2022-11-16T15:09:54.161Z,9.50
2022-11-16T15:12:42.776Z,9.00
2022-11-16T15:15:30.260Z,18.13
2022-11-16T15:18:21.935Z,9.30
2022-11-16T15:21:21.302Z,10.43
2022-11-16T15:24:29.392Z,12.88
2022-11-16T15:27:36.522Z,11.13
2022-11-16T15:30:49.558Z,14.55
2022-11-16T15:33:39.303Z,11.27
2022-11-16T15:36:39.454Z,16.50
2022-11-16T15:39:31.864Z,11.90
2022-11-16T15:42:18.521Z,14.98
2022-11-16T15:45:18.489Z,12.77
2022-11-16T15:48:05.198Z,12.68
2022-11-16T15:51:05.086Z,13.93
2022-11-16T15:53:55.078Z,14.00
2022-11-16T15:56:41.582Z,9.68
2022-11-16T15:59:34.155Z,20.63
2022-11-16T16:02:22.390Z,16.98
2022-11-16T16:05:40.829Z,20.83
2022-11-16T16:08:37.767Z,14.25
2022-11-16T16:11:26.781Z,14.00
2022-11-16T16:14:35.268Z,16.98
2022-11-16T16:17:32.682Z,17.83
2022-11-16T16:20:20.641Z,13.02
2022-11-16T16:23:19.028Z,21.65
2022-11-16T16:26:08.494Z,19.05
2022-11-16T16:28:54.027Z,14.00
2022-11-16T16:31:39.379Z,18.40
2022-11-16T16:34:25.101Z,12.40
2022-11-16T16:37:11.857Z,15.82
2022-11-16T16:39:57.869Z,22.92
2022-11-16T16:42:51.126Z,16.75
2022-11-16T16:45:43.392Z,14.98
2022-11-16T16:48:29.552Z,18.88
2022-11-16T16:51:15.709Z,20.20
2022-11-16T16:54:13.959Z,17.85
2022-11-16T16:57:01.378Z,16.00
2022-11-16T16:59:48.226Z,19.13
2022-11-16T17:02:33.565Z,15.65
2022-11-16T17:05:18.930Z,18.02
2022-11-16T17:08:04.762Z,10.00
2022-11-16T17:10:50.363Z,16.60
2022-11-16T17:13:36.059Z,18.77
2022-11-16T17:16:22.466Z,14.68
2022-11-16T17:19:07.631Z,13.48
2022-11-16T17:21:53.471Z,19.50
2022-11-16T17:24:38.832Z,15.40
2022-11-16T17:27:26.049Z,15.68
2022-11-16T17:30:14.494Z,13.27
2022-11-16T17:33:00.208Z,16.55
2022-11-16T17:35:56.072Z,12.40
2022-11-16T17:38:41.755Z,19.02
2022-11-16T17:41:27.998Z,14.57
2022-11-16T17:44:18.568Z,22.10
2022-11-16T17:47:07.522Z,17.50
2022-11-16T17:49:53.073Z,21.75
2022-11-16T17:52:38.566Z,18.55
2022-11-16T17:55:23.760Z,18.48
2022-11-16T17:58:09.313Z,26.30
2022-11-16T18:00:56.729Z,19.48
2022-11-16T18:03:44.635Z,23.45
2022-11-16T18:06:30.037Z,22.17
2022-11-16T18:09:15.752Z,20.67
2022-11-16T18:12:00.881Z,21.20
2022-11-16T18:15:21.334Z,17.20
2022-11-16T18:17:57.650Z,21.05
2022-11-16T18:20:43.354Z,12.80
2022-11-16T18:23:29.789Z,16.35
2022-11-16T18:26:18.730Z,15.02
2022-11-16T18:29:04.497Z,15.30
2022-11-16T18:31:49.743Z,22.40
2022-11-16T18:34:37.622Z,16.42
2022-11-16T18:37:22.894Z,19.27
2022-11-16T18:40:09.554Z,20.05
2022-11-16T18:42:55.262Z,14.70
2022-11-16T18:45:40.739Z,14.73
2022-11-16T18:48:26.503Z,24.15
2022-11-16T18:51:12.641Z,23.88
2022-11-16T18:53:58.107Z,25.95
2022-11-16T18:56:43.472Z,18.90
2022-11-16T18:59:29.063Z,29.17
2022-11-16T19:02:14.555Z,26.05
2022-11-16T19:05:02.726Z,17.00
2022-11-16T19:07:48.055Z,24.23
2022-11-16T19:10:37.601Z,18.23
2022-11-16T19:13:22.869Z,16.40
2022-11-16T19:16:10.641Z,21.92
2022-11-16T19:18:56.065Z,18.30
2022-11-16T19:21:41.974Z,19.80
2022-11-16T19:24:30.625Z,25.80
2022-11-16T19:27:16.661Z,13.90
2022-11-16T19:30:02.050Z,23.85
2022-11-16T19:32:47.503Z,15.80
2022-11-16T19:35:32.973Z,21.65
2022-11-16T19:38:18.496Z,21.60
2022-11-16T19:41:04.575Z,23.83
2022-11-16T19:43:52.891Z,12.60
2022-11-16T19:46:38.112Z,18.48
2022-11-16T19:49:24.223Z,15.73
2022-11-16T19:52:09.852Z,16.48
2022-11-16T19:54:56.175Z,17.83
2022-11-16T19:57:41.884Z,18.38
2022-11-16T20:00:27.221Z,20.42
2022-11-16T20:03:12.529Z,19.00
2022-11-16T20:06:10.125Z,16.83
2022-11-16T20:09:02.109Z,18.60
2022-11-16T20:11:49.310Z,18.48
2022-11-16T20:14:34.654Z,18.02
2022-11-16T20:17:20.191Z,13.02
2022-11-16T20:20:06.263Z,15.38
2022-11-16T20:22:53.223Z,12.73
2022-11-16T20:25:41.842Z,15.35
2022-11-16T20:28:27.371Z,18.08
2022-11-16T20:31:18.015Z,14.23
2022-11-16T20:34:05.622Z,9.45
2022-11-16T20:36:51.338Z,13.52
2022-11-16T20:39:37.825Z,14.80
2022-11-16T20:42:24.128Z,13.88
2022-11-16T20:45:10.019Z,11.95
2022-11-16T20:47:55.160Z,10.38
2022-11-16T20:50:48.252Z,12.77
2022-11-16T20:53:34.524Z,10.75
2022-11-16T20:56:21.601Z,14.80
2022-11-16T20:59:07.055Z,13.75
2022-11-16T21:01:52.331Z,8.25
2022-11-16T21:04:38.000Z,10.23
2022-11-16T21:07:24.166Z,12.18
2022-11-16T21:10:18.992Z,12.93
2022-11-16T21:13:24.497Z,8.10
2022-11-16T21:16:11.714Z,13.98
2022-11-16T21:18:56.974Z,8.60
2022-11-16T21:21:42.671Z,8.55
2022-11-16T21:24:28.400Z,12.27
2022-11-16T21:27:13.857Z,14.55
2022-11-16T21:29:59.047Z,14.18
2022-11-16T21:32:44.490Z,10.88
2022-11-16T21:35:30.554Z,12.18
2022-11-16T21:38:15.916Z,9.90
2022-11-16T21:41:02.095Z,10.73
2022-11-16T21:43:48.505Z,9.05
2022-11-16T21:46:36.699Z,7.85
2022-11-16T21:49:21.730Z,7.97
2022-11-16T21:52:07.335Z,8.35
2022-11-16T21:54:59.151Z,14.18
2022-11-16T21:57:44.170Z,10.20
2022-11-16T22:00:29.902Z,12.63
2022-11-16T22:03:15.966Z,11.23
2022-11-16T22:06:22.376Z,10.45
2022-11-16T22:09:07.519Z,12.57
2022-11-16T22:11:55.474Z,9.95
2022-11-16T22:14:40.882Z,14.15
2022-11-16T22:17:27.081Z,16.70
2022-11-16T22:20:12.309Z,14.02
2022-11-16T22:22:57.743Z,17.10
2022-11-16T22:25:43.546Z,15.27
2022-11-16T22:28:29.274Z,12.60
2022-11-16T22:31:15.017Z,11.73
2022-11-16T22:34:00.507Z,13.02
2022-11-16T22:36:45.777Z,7.75
2022-11-16T22:39:33.599Z,13.63
2022-11-16T22:42:18.935Z,8.75
2022-11-16T22:45:04.966Z,10.60
2022-11-16T22:47:54.993Z,12.25
2022-11-16T22:50:43.127Z,14.55
2022-11-16T22:53:28.598Z,12.05
2022-11-16T22:56:14.030Z,11.40
2022-11-16T22:59:02.599Z,8.20
2022-11-16T23:01:47.859Z,11.90
2022-11-16T23:04:33.326Z,12.25
2022-11-16T23:07:18.597Z,18.10
2022-11-16T23:10:04.596Z,12.65
2022-11-16T23:13:08.922Z,15.90
2022-11-16T23:15:54.166Z,15.55
2022-11-16T23:18:39.690Z,12.63
2022-11-16T23:21:43.934Z,9.45
2022-11-16T23:24:47.806Z,9.70
2022-11-16T23:27:55.316Z,14.57
2022-11-16T23:30:41.792Z,15.38
2022-11-16T23:33:43.815Z,18.65
2022-11-16T23:36:29.084Z,12.52
2022-11-16T23:39:14.639Z,10.77
2022-11-16T23:42:18.788Z,18.88
2022-11-16T23:45:04.673Z,9.60
2022-11-16T23:47:50.109Z,16.60
2022-11-16T23:50:36.391Z,11.60
2022-11-16T23:53:21.602Z,14.95
2022-11-16T23:56:07.613Z,8.85
2022-11-16T23:58:57.434Z,9.55
